Yadkinville, North Carolina
Current Conditions -  °F | °C
As of 11:54 AM on Friday 28 Nov 2014 (Local Time) from KINT Reporting Station
Clear Clear  
Wind Chill: 33°   Ceiling: Unl
Heat Index: 39°   Visibility: 10mi
Dew Point: 17°   Wind: 8mph
Humidity: 41%   Direction: 310°NW
Pressure: 30.33"   Gusts: NA
Location:  36.13°N, 80.66°W
Report Text: KINT 281654Z 31007KT 10SM CLR 04/M08 A3033 RMK AO2 SLP274 T00391083
Loading
Personal Weather Stations






























Interactive Weather Map New forecast layout! Learn more

10-Day Weather Forecast

Advertisements
Track Severe Weather on mobile